createdAt,value
2023-04-14T00:00:36.138Z,154.48
2023-04-14T00:01:36.119Z,157.31
2023-04-14T00:02:36.249Z,158.60
2023-04-14T00:03:36.270Z,158.79
2023-04-14T00:04:36.317Z,159.87
2023-04-14T00:05:36.071Z,158.91
2023-04-14T00:06:36.056Z,160.31
2023-04-14T00:07:36.030Z,161.42
2023-04-14T00:08:36.058Z,162.85
2023-04-14T00:09:36.096Z,162.36
2023-04-14T00:10:36.130Z,162.22
2023-04-14T00:11:36.178Z,164.27
2023-04-14T00:12:36.204Z,163.49
2023-04-14T00:13:36.230Z,164.95
2023-04-14T00:14:36.247Z,166.06
2023-04-14T00:15:36.293Z,165.46
2023-04-14T00:16:36.374Z,165.48
2023-04-14T00:17:36.372Z,165.70
2023-04-14T00:18:36.373Z,168.21
2023-04-14T00:19:36.417Z,168.84
2023-04-14T00:20:36.457Z,169.22
2023-04-14T00:21:36.461Z,171.07
2023-04-14T00:22:36.495Z,170.23
2023-04-14T00:23:36.516Z,171.13
2023-04-14T00:24:36.553Z,172.56
2023-04-14T00:25:36.600Z,175.21
2023-04-14T00:26:36.617Z,172.28
2023-04-14T00:27:36.647Z,174.06
2023-04-14T00:28:36.664Z,175.35
2023-04-14T00:29:36.704Z,174.35
2023-04-14T00:30:36.749Z,174.80
2023-04-14T00:31:36.898Z,172.11
2023-04-14T00:32:36.826Z,175.31
2023-04-14T00:33:36.857Z,175.87
2023-04-14T00:34:36.879Z,175.99
2023-04-14T00:35:36.910Z,176.07
2023-04-14T00:36:36.929Z,175.80
2023-04-14T00:37:37.007Z,178.02
2023-04-14T00:38:36.999Z,176.13
2023-04-14T00:39:37.043Z,177.47
2023-04-14T00:40:37.069Z,177.37
2023-04-14T00:41:37.105Z,178.52
2023-04-14T00:42:37.128Z,179.88
2023-04-14T00:43:37.160Z,180.33
2023-04-14T00:44:37.200Z,179.95
2023-04-14T00:45:37.228Z,180.73
2023-04-14T00:46:37.354Z,181.20
2023-04-14T00:47:37.332Z,179.89
2023-04-14T00:48:37.340Z,179.83
2023-04-14T00:49:37.354Z,177.24
2023-04-14T00:50:37.380Z,176.47
2023-04-14T00:51:37.416Z,174.73
2023-04-14T00:52:37.454Z,171.96
2023-04-14T00:53:37.484Z,169.35
2023-04-14T00:54:37.519Z,168.04
2023-04-14T00:55:37.563Z,166.10
2023-04-14T00:56:37.590Z,164.54
2023-04-14T00:57:37.617Z,163.52
2023-04-14T00:58:37.629Z,160.92
2023-04-14T00:59:37.678Z,159.44
2023-04-14T01:00:37.787Z,159.32
2023-04-14T01:01:37.773Z,158.23
2023-04-14T01:02:38.001Z,154.36
2023-04-14T01:03:37.891Z,152.13
2023-04-14T01:04:52.133Z,149.23
2023-04-14T01:05:38.847Z,149.26
2023-04-14T01:06:37.820Z,147.01
2023-04-14T01:07:37.806Z,146.17
2023-04-14T01:08:37.821Z,146.93
2023-04-14T01:09:37.800Z,144.56
2023-04-14T01:10:37.777Z,141.98
2023-04-14T01:11:37.767Z,141.96
2023-04-14T01:12:37.764Z,140.11
2023-04-14T01:13:37.774Z,135.85
2023-04-14T01:14:37.734Z,136.53
2023-04-14T01:15:37.758Z,134.88
2023-04-14T01:16:37.796Z,134.69
2023-04-14T01:17:37.760Z,134.26
2023-04-14T01:18:37.702Z,132.59
2023-04-14T01:19:37.737Z,131.83
2023-04-14T01:20:37.773Z,132.51
2023-04-14T01:21:37.802Z,131.81
2023-04-14T01:22:37.839Z,130.74
2023-04-14T01:23:37.908Z,127.49
2023-04-14T01:24:37.926Z,127.33
2023-04-14T01:25:37.937Z,130.50
2023-04-14T01:26:38.005Z,125.76
2023-04-14T01:27:38.014Z,125.90
2023-04-14T01:28:38.058Z,124.87
2023-04-14T01:29:38.092Z,125.32
2023-04-14T01:30:38.111Z,126.37
2023-04-14T01:31:38.195Z,122.89
2023-04-14T01:32:38.211Z,123.71
2023-04-14T01:33:38.216Z,124.32
2023-04-14T01:34:38.242Z,123.68
2023-04-14T01:35:38.286Z,122.60
2023-04-14T01:36:38.347Z,121.78
2023-04-14T01:37:38.327Z,120.08
2023-04-14T01:38:38.375Z,119.31
2023-04-14T01:39:38.400Z,121.70
2023-04-14T01:40:38.429Z,120.45
2023-04-14T01:41:38.465Z,121.64
2023-04-14T01:42:38.509Z,118.86
2023-04-14T01:43:38.552Z,119.53
2023-04-14T01:44:38.549Z,120.03
2023-04-14T01:45:38.660Z,117.90
2023-04-14T01:46:38.572Z,117.90
2023-04-14T01:47:38.598Z,116.81
2023-04-14T01:48:38.535Z,115.61
2023-04-14T01:49:38.604Z,115.38
2023-04-14T01:50:38.521Z,116.03
2023-04-14T01:51:38.540Z,114.23
2023-04-14T01:52:38.516Z,114.18
2023-04-14T01:53:38.542Z,113.87
2023-04-14T01:54:38.468Z,114.22
2023-04-14T01:55:38.454Z,116.65
2023-04-14T01:56:38.528Z,115.83
2023-04-14T01:57:38.441Z,114.09
2023-04-14T01:58:38.441Z,117.26
2023-04-14T01:59:38.444Z,119.30
2023-04-14T02:00:38.613Z,120.02
2023-04-14T02:01:38.529Z,120.74
2023-04-14T02:02:38.656Z,123.14
2023-04-14T02:03:38.673Z,125.66
2023-04-14T02:04:38.600Z,128.38
2023-04-14T02:05:38.654Z,128.69
2023-04-14T02:06:38.674Z,131.40
2023-04-14T02:07:38.710Z,132.63
2023-04-14T02:08:38.754Z,132.72
2023-04-14T02:09:38.785Z,135.10
2023-04-14T02:10:38.825Z,135.77
2023-04-14T02:11:38.897Z,136.24
2023-04-14T02:12:38.905Z,138.29
2023-04-14T02:13:38.946Z,141.41
2023-04-14T02:14:38.972Z,140.46
2023-04-14T02:15:39.017Z,141.34
2023-04-14T02:16:39.152Z,144.31
2023-04-14T02:17:39.158Z,146.31
2023-04-14T02:18:39.119Z,149.11
2023-04-14T02:19:39.159Z,148.17
2023-04-14T02:20:39.202Z,151.46
2023-04-14T02:21:39.224Z,153.81
2023-04-14T02:22:39.257Z,152.87
2023-04-14T02:23:39.292Z,152.06
2023-04-14T02:24:39.328Z,153.20
2023-04-14T02:25:39.362Z,154.31
2023-04-14T02:26:39.402Z,156.14
2023-04-14T02:27:39.449Z,157.60
2023-04-14T02:28:39.490Z,159.57
2023-04-14T02:29:39.520Z,160.01
2023-04-14T02:30:39.615Z,159.82
2023-04-14T02:31:39.604Z,159.92
2023-04-14T02:32:39.662Z,162.84
2023-04-14T02:33:39.681Z,164.02
2023-04-14T02:34:39.720Z,163.74
2023-04-14T02:35:39.773Z,163.86
2023-04-14T02:36:39.798Z,163.08
2023-04-14T02:37:39.835Z,164.13
2023-04-14T02:38:39.868Z,165.99
2023-04-14T02:39:39.921Z,166.52
2023-04-14T02:40:39.955Z,166.58
2023-04-14T02:41:40.010Z,166.60
2023-04-14T02:42:40.062Z,167.60
2023-04-14T02:43:40.078Z,168.66
2023-04-14T02:44:40.122Z,171.34
2023-04-14T02:45:40.162Z,171.00
2023-04-14T02:46:40.294Z,172.75
2023-04-14T02:47:40.307Z,173.68
2023-04-14T02:48:40.266Z,173.07
2023-04-14T02:49:40.310Z,173.61
2023-04-14T02:50:40.335Z,173.70
2023-04-14T02:51:40.416Z,174.46
2023-04-14T02:52:40.414Z,175.62
2023-04-14T02:53:40.411Z,175.69
2023-04-14T02:54:40.408Z,175.89
2023-04-14T02:55:40.387Z,176.40
2023-04-14T02:56:40.360Z,178.17
2023-04-14T02:57:40.356Z,178.41
2023-04-14T02:58:40.332Z,177.24
2023-04-14T02:59:40.330Z,178.43
2023-04-14T03:00:40.304Z,178.29
2023-04-14T03:01:40.298Z,179.29
2023-04-14T03:02:40.407Z,180.81
2023-04-14T03:03:40.328Z,180.13
2023-04-14T03:04:40.290Z,179.26
2023-04-14T03:05:40.301Z,178.70
2023-04-14T03:06:40.327Z,179.35
2023-04-14T03:07:40.368Z,181.06
2023-04-14T03:08:40.395Z,182.06
2023-04-14T03:09:40.448Z,182.27
2023-04-14T03:10:40.479Z,182.09
2023-04-14T03:11:40.529Z,182.42
2023-04-14T03:12:40.545Z,182.45
2023-04-14T03:13:40.626Z,180.71
2023-04-14T03:14:40.648Z,179.99
2023-04-14T03:15:40.722Z,178.10
2023-04-14T03:16:40.716Z,175.46
2023-04-14T03:17:40.816Z,172.72
2023-04-14T03:18:40.791Z,169.75
2023-04-14T03:19:40.833Z,169.18
2023-04-14T03:20:40.859Z,167.09
2023-04-14T03:21:40.909Z,165.16
2023-04-14T03:22:41.012Z,162.91
2023-04-14T03:23:40.978Z,159.80
2023-04-14T03:24:41.022Z,158.68
2023-04-14T03:25:41.067Z,158.57
2023-04-14T03:26:41.101Z,156.64
2023-04-14T03:27:41.146Z,156.67
2023-04-14T03:28:41.177Z,154.10
2023-04-14T03:29:41.230Z,151.78
2023-04-14T03:30:41.246Z,150.11
2023-04-14T03:31:41.354Z,148.57
2023-04-14T03:32:41.350Z,146.89
2023-04-14T03:33:41.344Z,145.25
2023-04-14T03:34:41.391Z,141.01
2023-04-14T03:35:41.436Z,142.02
2023-04-14T03:36:41.465Z,140.03
2023-04-14T03:37:41.534Z,138.87
2023-04-14T03:38:41.540Z,135.39
2023-04-14T03:39:41.570Z,136.60
2023-04-14T03:40:41.608Z,135.52
2023-04-14T03:41:41.650Z,133.74
2023-04-14T03:42:41.704Z,132.47
2023-04-14T03:43:41.717Z,131.31
2023-04-14T03:44:41.759Z,132.43
2023-04-14T03:45:41.810Z,130.60
2023-04-14T03:46:41.892Z,129.26
2023-04-14T03:47:42.007Z,127.97
2023-04-14T03:48:41.921Z,127.02
2023-04-14T03:49:41.951Z,127.35
2023-04-14T03:50:42.022Z,128.55
2023-04-14T03:51:42.025Z,127.22
2023-04-14T03:52:42.075Z,124.83
2023-04-14T03:53:42.102Z,123.38
2023-04-14T03:54:42.139Z,123.77
2023-04-14T03:55:42.200Z,123.57
2023-04-14T03:56:42.217Z,123.18
2023-04-14T03:57:42.276Z,122.91
2023-04-14T03:58:42.298Z,120.16
2023-04-14T03:59:42.343Z,121.39
2023-04-14T04:00:42.386Z,120.21
2023-04-14T04:01:42.428Z,117.18
2023-04-14T04:02:42.820Z,119.91
2023-04-14T04:03:42.882Z,121.84
2023-04-14T04:04:42.598Z,122.29
2023-04-14T04:05:42.705Z,123.49
2023-04-14T04:06:42.671Z,126.36
2023-04-14T04:07:42.684Z,126.91
2023-04-14T04:08:42.752Z,132.48
2023-04-14T04:09:42.738Z,133.19
2023-04-14T04:10:42.824Z,134.10
2023-04-14T04:11:42.829Z,136.97
2023-04-14T04:12:42.888Z,135.89
2023-04-14T04:13:42.892Z,137.99
2023-04-14T04:14:42.956Z,141.69
2023-04-14T04:15:42.990Z,141.84
2023-04-14T04:16:43.050Z,144.61
2023-04-14T04:17:43.107Z,146.37
2023-04-14T04:18:43.104Z,145.04
2023-04-14T04:19:43.142Z,146.76
2023-04-14T04:20:43.192Z,144.36
2023-04-14T04:21:43.218Z,148.01
2023-04-14T04:22:43.249Z,148.92
2023-04-14T04:23:43.293Z,149.68
2023-04-14T04:24:43.325Z,152.21
2023-04-14T04:25:43.375Z,154.72
2023-04-14T04:26:43.402Z,157.99
2023-04-14T04:27:43.446Z,156.49
2023-04-14T04:28:43.485Z,156.00
2023-04-14T04:29:43.520Z,158.12
2023-04-14T04:30:43.564Z,159.86
2023-04-14T04:31:43.652Z,161.54
2023-04-14T04:32:43.671Z,161.69
2023-04-14T04:33:43.700Z,163.95
2023-04-14T04:34:43.742Z,167.04
2023-04-14T04:35:43.792Z,164.54
2023-04-14T04:36:43.821Z,166.19
2023-04-14T04:37:43.925Z,167.26
2023-04-14T04:38:43.912Z,169.93
2023-04-14T04:39:43.953Z,170.84
2023-04-14T04:40:44.006Z,170.90
2023-04-14T04:41:44.038Z,171.37
2023-04-14T04:42:44.066Z,171.62
2023-04-14T04:43:44.124Z,173.67
2023-04-14T04:44:44.152Z,175.97
2023-04-14T04:45:44.213Z,173.87
2023-04-14T04:46:44.270Z,174.11
2023-04-14T04:47:44.309Z,176.64
2023-04-14T04:48:44.309Z,176.28
2023-04-14T04:49:44.360Z,175.64
2023-04-14T04:50:44.403Z,175.87
2023-04-14T04:51:44.435Z,177.32
2023-04-14T04:52:44.480Z,176.58
2023-04-14T04:53:44.523Z,178.59
2023-04-14T04:54:44.578Z,179.60
2023-04-14T04:55:44.621Z,178.53
2023-04-14T04:56:44.653Z,180.26
2023-04-14T04:57:44.686Z,182.62
2023-04-14T04:58:44.722Z,181.67
2023-04-14T04:59:44.755Z,173.83
2023-04-14T05:00:44.792Z,174.50
2023-04-14T05:01:44.875Z,173.68
2023-04-14T05:02:44.949Z,169.62
2023-04-14T05:03:44.903Z,166.07
2023-04-14T05:04:45.023Z,169.37
2023-04-14T05:05:44.973Z,171.45
2023-04-14T05:06:45.009Z,177.30
2023-04-14T05:07:45.035Z,180.32
2023-04-14T05:08:45.088Z,179.91
2023-04-14T05:09:45.113Z,181.82
2023-04-14T05:10:45.156Z,181.31
2023-04-14T05:11:45.198Z,181.34
2023-04-14T05:12:45.223Z,180.42
2023-04-14T05:13:45.257Z,179.21
2023-04-14T05:14:45.324Z,177.20
2023-04-14T05:15:45.379Z,176.13
2023-04-14T05:16:45.402Z,171.47
2023-04-14T05:17:45.460Z,171.79
2023-04-14T05:18:45.472Z,162.79
2023-04-14T05:19:45.508Z,158.23
2023-04-14T05:20:45.596Z,157.18
2023-04-14T05:21:45.579Z,161.69
2023-04-14T05:22:45.627Z,163.10
2023-04-14T05:23:45.658Z,157.88
2023-04-14T05:24:45.727Z,158.03
2023-04-14T05:25:47.550Z,156.33
2023-04-14T05:26:58.377Z,154.79
2023-04-14T05:27:46.780Z,154.81
2023-04-14T05:28:45.784Z,153.28
2023-04-14T05:29:45.808Z,152.59
2023-04-14T05:30:45.822Z,152.60
2023-04-14T05:31:45.904Z,152.34
2023-04-14T05:32:45.866Z,150.34
2023-04-14T05:33:45.743Z,154.37
2023-04-14T05:34:45.743Z,164.97
2023-04-14T05:35:45.736Z,171.14
2023-04-14T05:36:45.709Z,182.10
2023-04-14T05:37:45.685Z,189.72
2023-04-14T05:38:45.694Z,198.92
2023-04-14T05:39:45.710Z,208.28
2023-04-14T05:40:45.764Z,218.26
2023-04-14T05:41:45.789Z,218.36
2023-04-14T05:42:45.840Z,225.81
2023-04-14T05:43:45.850Z,237.95
2023-04-14T05:44:45.877Z,244.16
2023-04-14T05:45:45.912Z,248.34
2023-04-14T05:46:46.002Z,249.61
2023-04-14T05:47:47.611Z,247.88
2023-04-14T05:48:46.019Z,249.77
2023-04-14T05:49:46.025Z,248.17
2023-04-14T05:50:46.053Z,249.30
2023-04-14T05:51:46.093Z,250.00
2023-04-14T05:52:46.181Z,245.86
2023-04-14T05:53:46.171Z,250.00
2023-04-14T05:54:46.152Z,250.00
2023-04-14T05:55:46.183Z,250.00
2023-04-14T05:56:46.210Z,250.47
2023-04-14T05:57:46.272Z,249.78
2023-04-14T05:58:46.232Z,247.93
2023-04-14T05:59:46.215Z,250.00
2023-04-14T06:00:46.257Z,249.96
2023-04-14T06:01:46.240Z,249.36
2023-04-14T06:02:46.407Z,247.35
2023-04-14T06:03:46.382Z,248.36
2023-04-14T06:04:46.371Z,250.00
2023-04-14T06:05:47.432Z,248.84
2023-04-14T06:06:46.202Z,246.12
2023-04-14T06:07:46.163Z,241.76
2023-04-14T06:08:46.181Z,236.98
2023-04-14T06:09:46.193Z,235.31
2023-04-14T06:10:46.157Z,232.04
2023-04-14T06:11:46.170Z,229.58
2023-04-14T06:12:46.199Z,228.25
2023-04-14T06:13:46.225Z,224.05
2023-04-14T06:14:46.236Z,224.29
2023-04-14T06:15:46.263Z,227.49
2023-04-14T06:16:46.341Z,228.88
2023-04-14T06:17:46.302Z,225.69
2023-04-14T06:18:46.308Z,222.00
2023-04-14T06:19:46.379Z,218.39
2023-04-14T06:20:46.396Z,218.70
2023-04-14T06:21:46.420Z,223.40
2023-04-14T06:22:46.553Z,221.28
2023-04-14T06:23:46.499Z,220.89
2023-04-14T06:24:46.472Z,220.97
2023-04-14T06:25:47.227Z,221.60
2023-04-14T06:26:46.429Z,221.17
2023-04-14T06:27:46.404Z,221.76
2023-04-14T06:28:46.453Z,221.11
2023-04-14T06:29:46.363Z,221.20
2023-04-14T06:30:46.313Z,220.32
2023-04-14T06:31:46.485Z,220.38
2023-04-14T06:32:46.353Z,219.48
2023-04-14T06:33:46.232Z,218.95
2023-04-14T06:34:46.221Z,221.74
2023-04-14T06:35:46.318Z,217.04
2023-04-14T06:36:46.284Z,208.55
2023-04-14T06:37:46.303Z,199.37
2023-04-14T06:38:46.380Z,196.69
2023-04-14T06:39:46.550Z,186.92
2023-04-14T06:40:46.418Z,182.22
2023-04-14T06:41:46.552Z,179.91
2023-04-14T06:42:46.525Z,172.85
2023-04-14T06:43:46.581Z,172.97
2023-04-14T06:44:46.622Z,174.91
2023-04-14T06:45:46.641Z,178.51
2023-04-14T06:46:46.697Z,179.33
2023-04-14T06:47:46.751Z,175.75
2023-04-14T06:48:46.766Z,170.27
2023-04-14T06:49:46.796Z,166.26
2023-04-14T06:50:46.784Z,166.27
2023-04-14T06:51:46.767Z,162.55
2023-04-14T06:52:46.745Z,160.61
2023-04-14T06:53:46.790Z,160.51
2023-04-14T06:54:46.720Z,158.10
2023-04-14T06:55:46.704Z,151.95
2023-04-14T06:56:46.711Z,149.35
2023-04-14T06:57:46.699Z,148.00
2023-04-14T06:58:46.739Z,147.41
2023-04-14T06:59:46.756Z,149.91
2023-04-14T07:00:46.806Z,150.41
2023-04-14T07:01:46.904Z,150.59
2023-04-14T07:02:46.985Z,151.98
2023-04-14T07:03:46.956Z,152.70
2023-04-14T07:04:47.049Z,154.13
2023-04-14T07:05:47.100Z,153.46
2023-04-14T07:06:47.176Z,151.82
2023-04-14T07:07:47.176Z,152.09
2023-04-14T07:08:47.121Z,153.77
2023-04-14T07:09:47.198Z,153.49
2023-04-14T07:10:47.217Z,153.21
2023-04-14T07:11:47.116Z,154.54
2023-04-14T07:12:47.103Z,154.56
2023-04-14T07:13:47.114Z,154.64
2023-04-14T07:14:47.075Z,154.70
2023-04-14T07:15:47.102Z,154.67
2023-04-14T07:16:47.039Z,156.02
2023-04-14T07:17:47.072Z,159.01
2023-04-14T07:18:47.030Z,157.83
2023-04-14T07:19:46.989Z,158.44
2023-04-14T07:20:47.026Z,158.29
2023-04-14T07:21:47.037Z,156.35
2023-04-14T07:22:46.960Z,158.17
2023-04-14T07:23:46.926Z,160.26
2023-04-14T07:24:46.930Z,159.96
2023-04-14T07:25:46.899Z,157.98
2023-04-14T07:26:46.897Z,160.03
2023-04-14T07:27:56.545Z,158.86
2023-04-14T07:28:47.864Z,158.97
2023-04-14T07:29:46.856Z,159.37
2023-04-14T07:30:46.818Z,160.22
2023-04-14T07:31:46.888Z,158.22
2023-04-14T07:32:46.807Z,160.53
2023-04-14T07:33:46.773Z,162.43
2023-04-14T07:34:46.755Z,165.23
2023-04-14T07:36:00.677Z,162.65
2023-04-14T07:36:47.757Z,150.69
2023-04-14T07:37:46.694Z,145.47
2023-04-14T07:38:46.854Z,144.43
2023-04-14T07:39:46.689Z,142.91
2023-04-14T07:40:46.669Z,142.97
2023-04-14T07:41:46.624Z,144.75
2023-04-14T07:42:47.072Z,150.81
2023-04-14T07:43:46.623Z,157.17
2023-04-14T07:44:46.594Z,162.05
2023-04-14T07:45:46.575Z,163.10
2023-04-14T07:46:46.587Z,166.67
2023-04-14T07:47:46.532Z,168.59
2023-04-14T07:48:46.495Z,176.29
2023-04-14T07:49:46.470Z,184.01
2023-04-14T07:50:46.431Z,184.45
2023-04-14T07:51:46.397Z,184.66
2023-04-14T07:52:46.427Z,187.21
2023-04-14T07:53:46.360Z,194.76
2023-04-14T07:54:46.399Z,207.82
2023-04-14T07:55:46.315Z,220.78
2023-04-14T07:56:46.289Z,219.29
2023-04-14T07:57:46.250Z,216.43
2023-04-14T07:58:46.227Z,210.94
2023-04-14T07:59:46.235Z,206.29
2023-04-14T08:00:46.286Z,203.65
2023-04-14T08:01:46.410Z,199.79
2023-04-14T08:02:46.465Z,206.33
2023-04-14T08:03:46.462Z,207.36
2023-04-14T08:04:46.849Z,201.28
2023-04-14T08:05:46.419Z,199.86
2023-04-14T08:06:46.425Z,190.93
2023-04-14T08:07:46.453Z,182.61
2023-04-14T08:08:46.464Z,180.42
2023-04-14T08:09:46.498Z,179.15
2023-04-14T08:10:46.461Z,178.29
2023-04-14T08:11:46.694Z,177.56
2023-04-14T08:12:46.513Z,180.48
2023-04-14T08:13:46.599Z,177.55
2023-04-14T08:14:46.566Z,170.42
2023-04-14T08:15:46.597Z,167.89
2023-04-14T08:16:47.080Z,168.27
2023-04-14T08:17:46.589Z,170.20
2023-04-14T08:18:46.583Z,168.83
2023-04-14T08:19:46.607Z,171.96
2023-04-14T08:20:46.688Z,152.75
2023-04-14T08:21:46.606Z,140.94
2023-04-14T08:22:46.859Z,145.23
2023-04-14T08:23:46.533Z,143.44
2023-04-14T08:24:46.783Z,116.13
2023-04-14T08:25:46.628Z,85.38
2023-04-14T08:26:46.542Z,78.16
2023-04-14T08:27:46.546Z,65.86
2023-04-14T08:28:46.548Z,38.02
2023-04-14T08:29:46.696Z,23.98
2023-04-14T08:30:47.075Z,33.44
2023-04-14T08:31:46.718Z,33.91
2023-04-14T08:32:46.571Z,24.28
2023-04-14T08:33:46.579Z,24.83
2023-04-14T08:35:37.015Z,21.02
2023-04-14T08:35:57.065Z,21.43
2023-04-14T08:36:47.653Z,21.58
2023-04-14T08:37:46.540Z,25.68
2023-04-14T08:38:46.511Z,35.06
2023-04-14T08:39:46.517Z,44.97
2023-04-14T08:40:46.544Z,57.84
2023-04-14T08:41:46.447Z,44.86
2023-04-14T08:42:46.469Z,39.87
2023-04-14T08:43:46.711Z,22.65
2023-04-14T08:44:46.563Z,7.64
2023-04-14T08:45:46.568Z,23.24
2023-04-14T08:46:46.393Z,41.26
2023-04-14T08:47:46.394Z,56.35
2023-04-14T08:48:46.429Z,77.25
2023-04-14T08:49:46.744Z,96.34
2023-04-14T08:50:46.395Z,109.62
2023-04-14T08:51:46.605Z,124.77
2023-04-14T08:52:46.430Z,135.30
2023-04-14T08:53:46.395Z,141.16
2023-04-14T08:54:46.269Z,158.05
2023-04-14T08:55:46.219Z,171.05
2023-04-14T08:56:46.179Z,176.03
2023-04-14T08:57:46.169Z,174.01
2023-04-14T08:58:46.236Z,182.82
2023-04-14T08:59:46.183Z,191.04
2023-04-14T09:00:46.151Z,198.53
2023-04-14T09:01:46.314Z,207.55
2023-04-14T09:02:46.219Z,216.96
2023-04-14T09:03:46.213Z,224.06
2023-04-14T09:04:46.345Z,229.55
2023-04-14T09:05:45.986Z,234.84
2023-04-14T09:06:45.952Z,234.93
2023-04-14T09:07:46.031Z,233.67
2023-04-14T09:08:45.909Z,235.45
2023-04-14T09:09:45.910Z,239.83
2023-04-14T09:10:45.920Z,235.87
2023-04-14T09:11:45.822Z,234.01
2023-04-14T09:12:45.909Z,234.11
2023-04-14T09:13:45.780Z,235.00
2023-04-14T09:14:45.730Z,237.12
2023-04-14T09:15:45.777Z,235.29
2023-04-14T09:16:45.761Z,220.83
2023-04-14T09:17:45.714Z,228.76
2023-04-14T09:18:47.285Z,225.58
2023-04-14T09:20:38.355Z,218.63
2023-04-14T09:20:46.664Z,218.33
2023-04-14T09:21:53.735Z,219.02
2023-04-14T09:22:45.533Z,218.23
2023-04-14T09:23:45.634Z,219.35
2023-04-14T09:24:45.502Z,221.52
2023-04-14T09:25:45.488Z,225.88
2023-04-14T09:26:45.457Z,229.13
2023-04-14T09:27:45.393Z,218.98
2023-04-14T09:28:45.369Z,220.02
2023-04-14T09:29:45.336Z,221.56
2023-04-14T09:30:45.765Z,221.70
2023-04-14T09:31:45.296Z,215.78
2023-04-14T09:32:45.393Z,209.92
2023-04-14T09:33:45.372Z,206.12
2023-04-14T09:34:45.258Z,204.53
2023-04-14T09:35:45.211Z,204.51
2023-04-14T09:36:45.244Z,204.97
2023-04-14T09:37:45.322Z,204.99
2023-04-14T09:38:45.325Z,202.33
2023-04-14T09:39:45.400Z,200.38
2023-04-14T09:40:45.381Z,199.62
2023-04-14T09:41:45.535Z,197.01
2023-04-14T09:42:45.441Z,198.44
2023-04-14T09:43:45.485Z,207.78
2023-04-14T09:44:45.549Z,217.04
2023-04-14T09:45:45.658Z,223.21
2023-04-14T09:46:45.533Z,223.33
2023-04-14T09:47:45.559Z,223.46
2023-04-14T09:48:45.457Z,225.42
2023-04-14T09:49:45.422Z,226.87
2023-04-14T09:50:45.390Z,231.57
2023-04-14T09:51:45.426Z,235.06
2023-04-14T09:52:45.537Z,231.16
2023-04-14T09:53:48.065Z,234.43
2023-04-14T09:54:45.376Z,238.66
2023-04-14T09:55:45.353Z,237.20
2023-04-14T09:56:45.296Z,238.73
2023-04-14T09:57:45.350Z,239.53
2023-04-14T09:58:45.379Z,246.91
2023-04-14T09:59:45.270Z,248.98
2023-04-14T10:00:45.320Z,246.78
2023-04-14T10:01:45.300Z,249.02
2023-04-14T10:02:45.386Z,249.39
2023-04-14T10:03:45.156Z,248.60
2023-04-14T10:04:45.120Z,249.32
2023-04-14T10:05:45.061Z,249.22
2023-04-14T10:06:45.026Z,249.57
2023-04-14T10:07:45.009Z,249.31
2023-04-14T10:08:44.974Z,249.21
2023-04-14T10:09:44.954Z,247.97
2023-04-14T10:10:44.947Z,248.43
2023-04-14T10:11:44.911Z,250.00
2023-04-14T10:12:44.935Z,248.87
2023-04-14T10:13:44.981Z,248.48
2023-04-14T10:14:44.920Z,246.78
2023-04-14T10:15:44.889Z,244.40
2023-04-14T10:16:44.746Z,246.36
2023-04-14T10:17:44.753Z,237.04
2023-04-14T10:18:44.697Z,235.00
2023-04-14T10:19:44.712Z,224.20
2023-04-14T10:20:44.660Z,226.28
2023-04-14T10:21:44.632Z,224.76
2023-04-14T10:22:44.597Z,217.53
2023-04-14T10:23:44.617Z,217.05
2023-04-14T10:24:44.657Z,215.73
2023-04-14T10:25:44.506Z,215.40
2023-04-14T10:26:44.481Z,215.03
2023-04-14T10:27:44.436Z,203.35
2023-04-14T10:28:44.440Z,199.21
2023-04-14T10:29:44.511Z,197.76
2023-04-14T10:30:44.499Z,199.61
2023-04-14T10:31:44.580Z,197.60
2023-04-14T10:32:44.601Z,190.19
2023-04-14T10:33:44.642Z,192.04
2023-04-14T10:34:44.682Z,192.76
2023-04-14T10:35:44.705Z,193.30
2023-04-14T10:36:44.742Z,187.31
2023-04-14T10:37:45.392Z,166.30
2023-04-14T10:38:44.930Z,174.59
2023-04-14T10:39:44.794Z,180.45
2023-04-14T10:40:44.831Z,180.68
2023-04-14T10:41:44.864Z,185.63
2023-04-14T10:42:44.937Z,189.10
2023-04-14T10:43:45.009Z,189.84
2023-04-14T10:44:44.971Z,193.59
2023-04-14T10:45:45.816Z,195.82
2023-04-14T10:46:45.077Z,196.81
2023-04-14T10:47:45.399Z,189.96
2023-04-14T10:48:45.213Z,181.42
2023-04-14T10:49:45.155Z,180.53
2023-04-14T10:50:45.159Z,178.62
2023-04-14T10:51:45.901Z,181.40
2023-04-14T10:52:45.334Z,176.65
2023-04-14T10:53:45.874Z,178.95
2023-04-14T10:54:45.328Z,179.16
2023-04-14T10:55:51.839Z,175.05
2023-04-14T10:56:46.342Z,175.14
2023-04-14T10:57:45.237Z,176.64
2023-04-14T10:58:45.235Z,180.28
2023-04-14T10:59:45.391Z,184.94
2023-04-14T11:00:45.161Z,190.98
2023-04-14T11:01:45.147Z,193.49
2023-04-14T11:02:45.281Z,199.13
2023-04-14T11:03:45.250Z,204.78
2023-04-14T11:04:45.006Z,203.56
2023-04-14T11:05:44.993Z,209.63
2023-04-14T11:06:44.980Z,214.28
2023-04-14T11:07:45.028Z,218.85
2023-04-14T11:08:45.156Z,216.79
2023-04-14T11:09:44.983Z,217.02
2023-04-14T11:10:44.945Z,217.92
2023-04-14T11:11:45.182Z,217.96
2023-04-14T11:12:45.387Z,218.89
2023-04-14T11:13:44.884Z,221.89
2023-04-14T11:14:44.885Z,220.90
2023-04-14T11:15:45.010Z,222.25
2023-04-14T11:16:58.766Z,226.02
2023-04-14T11:17:45.962Z,226.16
2023-04-14T11:18:46.431Z,226.63
2023-04-14T11:19:45.401Z,226.82
2023-04-14T11:20:45.045Z,229.04
2023-04-14T11:21:45.033Z,231.37
2023-04-14T11:22:45.012Z,221.39
2023-04-14T11:23:45.035Z,224.81
2023-04-14T11:24:45.112Z,223.26
2023-04-14T11:25:45.659Z,220.24
2023-04-14T11:26:45.405Z,216.53
2023-04-14T11:27:44.987Z,217.85
2023-04-14T11:28:44.977Z,215.80
2023-04-14T11:29:44.991Z,220.20
2023-04-14T11:30:44.976Z,225.73
2023-04-14T11:31:45.082Z,225.91
2023-04-14T11:32:44.957Z,226.58
2023-04-14T11:33:44.880Z,228.59
2023-04-14T11:34:44.819Z,233.32
2023-04-14T11:35:44.784Z,241.66
2023-04-14T11:36:44.775Z,244.30
2023-04-14T11:37:44.701Z,240.81
2023-04-14T11:38:44.724Z,242.22
2023-04-14T11:39:44.676Z,238.05
2023-04-14T11:40:44.660Z,235.68
2023-04-14T11:41:44.753Z,235.57
2023-04-14T11:42:44.988Z,231.12
2023-04-14T11:43:44.697Z,227.44
2023-04-14T11:44:44.714Z,227.05
2023-04-14T11:45:44.878Z,220.19
2023-04-14T11:46:44.768Z,215.49
2023-04-14T11:47:44.833Z,211.49
2023-04-14T11:48:44.829Z,205.86
2023-04-14T11:49:44.843Z,200.91
2023-04-14T11:50:44.868Z,199.95
2023-04-14T11:51:44.964Z,197.40
2023-04-14T11:52:44.926Z,197.57
2023-04-14T11:53:44.945Z,195.88
2023-04-14T11:54:44.986Z,191.42
2023-04-14T11:55:44.991Z,188.06
2023-04-14T11:56:45.096Z,187.15
2023-04-14T11:57:45.051Z,186.26
2023-04-14T11:58:45.058Z,184.60
2023-04-14T11:59:45.066Z,184.02
2023-04-14T12:00:45.104Z,182.02
2023-04-14T12:01:45.168Z,179.86
2023-04-14T12:02:45.396Z,179.09
2023-04-14T12:03:45.274Z,173.15
2023-04-14T12:04:45.371Z,170.51
2023-04-14T12:05:45.330Z,167.52
2023-04-14T12:06:45.213Z,165.50
2023-04-14T12:07:45.249Z,162.41
2023-04-14T12:08:45.257Z,162.54
2023-04-14T12:09:45.253Z,162.78
2023-04-14T12:10:45.287Z,162.48
2023-04-14T12:11:45.289Z,161.27
2023-04-14T12:12:45.325Z,155.52
2023-04-14T12:13:45.307Z,154.56
2023-04-14T12:14:45.327Z,153.55
2023-04-14T12:15:45.207Z,152.26
2023-04-14T12:16:45.198Z,153.11
2023-04-14T12:17:45.168Z,153.37
2023-04-14T12:18:45.132Z,152.23
2023-04-14T12:19:45.073Z,149.72
2023-04-14T12:20:45.031Z,150.27
2023-04-14T12:21:45.006Z,148.55
2023-04-14T12:22:45.004Z,147.92
2023-04-14T12:23:45.033Z,146.29
2023-04-14T12:24:45.040Z,145.78
2023-04-14T12:25:45.087Z,141.89
2023-04-14T12:26:45.101Z,139.97
2023-04-14T12:27:45.100Z,141.68
2023-04-14T12:28:45.115Z,141.65
2023-04-14T12:29:45.171Z,140.26